Time;durP1;ratioP1;P1;durP2;ratioP2;P2;SDS_P1;SDS_P2;PMS_P1;PMS_P2;Temp;Humidity;BMP_temperature;BMP_pressure;BME280_temperature;BME280_humidity;BME280_pressure;Samples;Min_cycle;Max_cycle;Signal;HPM_P1;HPM_P2
2022/03/19 00:09:58;;;;;;;37.20;21.60;;;;;;;-2.28;45.54;102092.11;431614;1270;141982;-62
2022/03/19 00:20:06;;;;;;;39.30;20.70;;;;;;;-2.72;46.75;102088.04;430864;1270;142429;-62
2022/03/19 00:30:13;;;;;;;29.80;17.90;;;;;;;-2.93;46.83;102082.94;431769;1270;141646;-61
2022/03/19 00:40:22;;;;;;;27.40;17.90;;;;;;;-3.04;47.21;102073.02;433885;1270;142494;-68
2022/03/19 00:50:28;;;;;;;26.40;17.70;;;;;;;-2.95;47.51;102066.58;431375;1270;141965;-66
2022/03/19 01:00:34;;;;;;;23.50;13.80;;;;;;;-2.94;47.55;102065.26;429527;1271;142579;-65
2022/03/19 01:10:41;;;;;;;38.50;22.50;;;;;;;-3.32;48.73;102067.48;430762;1270;141835;-68
2022/03/19 01:20:47;;;;;;;41.50;25.00;;;;;;;-3.70;49.56;102074.77;431582;1270;141325;-68
2022/03/19 01:30:53;;;;;;;30.10;20.90;;;;;;;-4.01;50.46;102067.67;430719;1270;142684;-68
2022/03/19 01:41:01;;;;;;;36.10;22.30;;;;;;;-4.30;50.94;102065.60;431286;1270;141159;-67
2022/03/19 01:51:07;;;;;;;38.90;21.40;;;;;;;-4.51;51.53;102063.11;431519;1269;142742;-70
2022/03/19 02:01:13;;;;;;;59.40;33.70;;;;;;;-4.66;52.25;102057.25;431335;1270;142722;-67
2022/03/19 02:11:20;;;;;;;28.40;17.70;;;;;;;-4.33;51.96;102046.34;430851;1270;141184;-68
2022/03/19 02:21:26;;;;;;;33.70;19.00;;;;;;;-4.27;51.81;102046.41;431653;1270;143012;-69
2022/03/19 02:31:32;;;;;;;25.40;16.90;;;;;;;-4.23;51.75;102047.23;430824;1270;142175;-68
2022/03/19 02:41:43;;;;;;;21.90;15.70;;;;;;;-4.18;51.43;102045.35;430343;1270;142694;-67
2022/03/19 02:51:52;;;;;;;22.20;14.80;;;;;;;-3.86;51.00;102042.54;429923;1270;144211;-69
2022/03/19 03:01:59;;;;;;;21.00;13.60;;;;;;;-3.80;50.71;102043.77;431298;1270;142491;-68
2022/03/19 03:12:07;;;;;;;43.30;23.80;;;;;;;-3.80;50.75;102047.00;431885;1270;141808;-67
2022/03/19 03:22:13;;;;;;;41.30;24.20;;;;;;;-4.10;51.94;102055.54;430681;1270;143703;-67
2022/03/19 03:32:17;;;;;;;;;;;;;;;-4.45;52.65;102053.08;430641;1271;142344;-65
2022/03/19 03:42:23;;;;;;;75.50;48.80;;;;;;;-4.80;53.45;102057.56;430239;1270;127090;-67
2022/03/19 03:52:30;;;;;;;47.40;29.90;;;;;;;-4.95;53.86;102062.80;431133;1270;142498;-68
2022/03/19 04:02:35;;;;;;;42.40;24.20;;;;;;;-5.03;53.93;102061.12;431145;1271;144904;-65
2022/03/19 04:12:42;;;;;;;36.60;22.20;;;;;;;-5.11;53.93;102067.48;432336;1270;142478;-65
2022/03/19 04:22:49;;;;;;;40.60;21.50;;;;;;;-4.97;54.03;102071.12;431474;1270;141185;-66
2022/03/19 04:32:57;;;;;;;33.70;20.70;;;;;;;-5.00;54.10;102076.93;431111;1270;142687;-66
2022/03/19 04:43:03;;;;;;;38.10;23.40;;;;;;;-4.88;53.92;102082.74;430739;1270;141926;-63
2022/03/19 04:53:08;;;;;;;;;;;;;;;-4.86;54.07;102084.17;431060;1270;141354;-66
2022/03/19 05:03:14;;;;;;;28.80;17.60;;;;;;;-4.62;53.74;102082.35;431475;1270;127288;-65
2022/03/19 05:13:21;;;;;;;36.00;19.80;;;;;;;-4.25;53.43;102087.33;430655;1269;141549;-65
2022/03/19 05:23:27;;;;;;;28.70;18.40;;;;;;;-3.69;52.80;102090.86;430788;1270;141223;-66
2022/03/19 05:43:57;;;;;;;27.10;17.10;;;;;;;-2.39;51.17;102094.18;431355;1270;141234;-68
2022/03/19 05:54:03;;;;;;;30.50;19.70;;;;;;;2.14;48.67;102103.89;432256;1270;142101;-67
2022/03/19 06:04:09;;;;;;;27.70;21.50;;;;;;;8.58;42.20;102100.61;430419;1271;143573;-66
2022/03/19 06:14:15;;;;;;;24.50;21.40;;;;;;;13.26;36.44;102096.65;431160;1271;141479;-67
2022/03/19 06:24:23;;;;;;;28.90;22.10;;;;;;;16.18;31.86;102098.35;430017;1270;142553;-68
2022/03/19 06:34:30;;;;;;;28.60;22.00;;;;;;;18.14;28.92;102100.27;430750;1271;143147;-67
2022/03/19 06:44:38;;;;;;;25.30;22.00;;;;;;;20.12;26.74;102109.40;431924;1270;143189;-67
2022/03/19 06:54:44;;;;;;;26.10;20.60;;;;;;;22.52;24.48;102109.88;431856;1270;143446;-66
2022/03/19 07:04:50;;;;;;;24.30;21.80;;;;;;;23.31;22.64;102115.92;432681;1270;141077;-66
2022/03/19 07:14:56;;;;;;;23.60;21.20;;;;;;;25.61;21.65;102121.75;431098;1270;142397;-66
2022/03/19 07:25:02;;;;;;;24.00;21.50;;;;;;;26.33;19.89;102120.23;431461;1270;142971;-66
2022/03/19 07:35:10;;;;;;;22.20;19.90;;;;;;;27.49;19.13;102126.73;430920;1271;146480;-67
2022/03/19 07:45:16;;;;;;;21.10;19.00;;;;;;;28.37;17.95;102127.95;431041;1271;146097;-66
2022/03/19 07:55:23;;;;;;;22.30;17.00;;;;;;;28.70;17.25;102134.17;430726;1270;142581;-66
2022/03/19 08:05:29;;;;;;;18.60;16.70;;;;;;;28.89;16.23;102142.01;430744;1271;145274;-65
2022/03/19 08:15:37;;;;;;;19.40;17.40;;;;;;;29.15;15.92;102147.79;430327;1270;162241;-65
2022/03/19 08:25:43;;;;;;;16.30;14.60;;;;;;;27.51;15.37;102156.05;430752;1271;181970;-65
2022/03/19 08:35:49;;;;;;;14.70;13.20;;;;;;;27.11;14.76;102162.13;432367;1271;143282;-66
2022/03/19 08:45:55;;;;;;;17.40;15.50;;;;;;;27.40;14.83;102158.15;429956;1271;142339;-65
2022/03/19 08:56:00;;;;;;;13.40;12.20;;;;;;;27.66;14.82;102163.26;430879;1271;144067;-65
2022/03/19 09:06:07;;;;;;;17.90;13.20;;;;;;;25.36;14.51;102161.36;431229;1270;141969;-65
2022/03/19 09:16:13;;;;;;;16.50;12.20;;;;;;;17.24;16.47;102168.64;432654;1271;141619;-65
2022/03/19 09:26:19;;;;;;;10.70;9.70;;;;;;;12.99;18.99;102178.96;433769;1271;140970;-65
2022/03/19 09:36:25;;;;;;;15.40;11.70;;;;;;;11.09;20.39;102184.83;430897;1270;143181;-65
2022/03/19 09:46:31;;;;;;;12.30;10.60;;;;;;;10.24;21.12;102187.06;433244;1270;141360;-66
2022/03/19 09:56:38;;;;;;;14.60;11.80;;;;;;;9.19;21.96;102186.91;430532;1270;142905;-66
2022/03/19 10:17:34;;;;;;;13.80;9.70;;;;;;;8.31;22.85;102188.52;430753;1270;145070;-67
2022/03/19 10:27:42;;;;;;;11.50;10.20;;;;;;;7.78;23.61;102185.63;431897;1270;141716;-66
2022/03/19 10:37:48;;;;;;;14.20;10.60;;;;;;;7.29;23.81;102194.27;430795;1270;140932;-65
2022/03/19 10:47:53;;;;;;;11.60;8.60;;;;;;;6.85;24.29;102194.61;432154;1270;141996;-68
2022/03/19 10:57:59;;;;;;;14.80;9.40;;;;;;;6.67;24.61;102193.50;430570;1270;141413;-67
2022/03/19 11:08:08;;;;;;;12.00;9.50;;;;;;;6.57;24.88;102181.04;433264;1269;140585;-62
2022/03/19 11:18:14;;;;;;;10.70;9.40;;;;;;;6.68;24.73;102171.91;431115;1270;140828;-62
2022/03/19 11:28:21;;;;;;;10.40;8.10;;;;;;;6.57;25.03;102164.16;432761;1270;152122;-66
2022/03/19 11:38:28;;;;;;;10.40;7.70;;;;;;;6.63;25.14;102153.86;431868;1270;141252;-63
2022/03/19 11:48:42;;;;;;;13.10;7.50;;;;;;;6.72;24.74;102158.48;430143;1269;141279;-62
2022/03/19 11:58:49;;;;;;;13.50;7.00;;;;;;;6.61;24.37;102154.55;432483;1270;199801;-61
2022/03/19 12:08:56;;;;;;;12.40;8.60;;;;;;;6.46;24.05;102141.77;431770;1269;141472;-63
2022/03/19 12:19:01;;;;;;;14.00;9.20;;;;;;;6.45;25.14;102126.80;431492;1269;142081;-61
2022/03/19 12:29:09;;;;;;;11.10;8.30;;;;;;;6.61;25.54;102126.01;430800;1270;141344;-61
2022/03/19 12:39:15;;;;;;;11.40;8.40;;;;;;;6.65;25.46;102124.23;430134;1270;163765;-61
2022/03/19 12:49:21;;;;;;;12.50;9.40;;;;;;;6.71;25.80;102121.42;432844;1270;144720;-61
2022/03/19 12:59:31;;;;;;;10.90;9.20;;;;;;;6.72;26.29;102115.84;432375;1269;140713;-59
2022/03/19 13:09:39;;;;;;;14.30;9.30;;;;;;;6.78;26.16;102119.27;430679;1270;142872;-58
2022/03/19 13:19:43;;;;;;;;;;;;;;;6.76;26.59;102126.61;432125;1270;140719;-60
2022/03/19 13:29:49;;;;;;;12.70;9.20;;;;;;;6.69;26.31;102123.00;432483;1270;127706;-58
2022/03/19 13:40:06;;;;;;;17.80;10.80;;;;;;;6.68;26.38;102115.19;431092;1270;141219;-62
2022/03/19 13:50:14;;;;;;;14.30;9.90;;;;;;;6.77;26.18;102116.50;440791;1270;141860;-62
2022/03/19 14:00:24;;;;;;;13.30;10.60;;;;;;;6.74;26.46;102115.83;432362;1270;141418;-67
2022/03/19 14:10:33;;;;;;;16.00;10.70;;;;;;;6.75;26.70;102106.24;433248;1270;142236;-64
2022/03/19 14:20:39;;;;;;;13.00;9.20;;;;;;;6.76;26.85;102106.07;431468;1270;143306;-64
2022/03/19 14:30:45;;;;;;;9.70;7.80;;;;;;;6.73;26.12;102106.08;430044;1270;144328;-67
2022/03/19 14:40:53;;;;;;;12.90;9.10;;;;;;;6.71;26.00;102097.22;430250;1270;141342;-68
2022/03/19 14:51:02;;;;;;;10.10;7.40;;;;;;;6.67;25.69;102095.51;431197;1270;140856;-63
2022/03/19 15:01:11;;;;;;;9.70;7.90;;;;;;;6.65;25.83;102089.61;430541;1270;141718;-63
2022/03/19 15:11:17;;;;;;;11.90;8.30;;;;;;;6.63;25.88;102085.79;431978;1270;141883;-64
2022/03/19 15:21:23;;;;;;;10.30;7.90;;;;;;;6.59;26.26;102083.39;431551;1269;142147;-57
2022/03/19 15:31:29;;;;;;;10.80;8.90;;;;;;;6.54;26.48;102083.08;431704;1270;142177;-60
2022/03/19 15:41:35;;;;;;;11.20;8.30;;;;;;;6.42;26.97;102080.03;431120;1270;146753;-58
2022/03/19 15:51:41;;;;;;;12.00;8.30;;;;;;;6.30;27.08;102077.84;431759;1270;144997;-59
2022/03/19 16:01:48;;;;;;;12.50;9.90;;;;;;;6.14;27.36;102077.75;433718;1270;141547;-58
2022/03/19 16:11:54;;;;;;;13.70;9.10;;;;;;;5.97;27.35;102078.35;432254;1270;142044;-58
2022/03/19 16:22:00;;;;;;;12.60;9.20;;;;;;;5.79;27.40;102082.59;436243;1270;141679;-58
2022/03/19 16:32:08;;;;;;;12.50;8.60;;;;;;;5.57;27.40;102090.30;431086;1270;142453;-59
2022/03/19 16:42:15;;;;;;;12.20;8.90;;;;;;;5.35;27.82;102094.53;445445;1269;141389;-57
2022/03/19 16:52:20;;;;;;;14.10;9.40;;;;;;;5.15;28.14;102103.06;431117;1269;144448;-59
2022/03/19 17:02:26;;;;;;;16.60;11.00;;;;;;;4.79;28.19;102103.95;430995;1270;141766;-58
2022/03/19 17:12:33;;;;;;;14.80;11.20;;;;;;;4.43;28.71;102111.02;430482;1270;141859;-58
2022/03/19 17:22:39;;;;;;;20.40;11.90;;;;;;;4.13;29.42;102118.20;431321;1270;141987;-60
2022/03/19 17:32:46;;;;;;;19.40;13.10;;;;;;;3.88;29.62;102121.92;431560;1270;144012;-59
2022/03/19 17:42:52;;;;;;;18.00;11.90;;;;;;;3.69;30.15;102134.48;429778;1270;142882;-60
2022/03/19 17:52:58;;;;;;;20.40;13.80;;;;;;;3.52;30.45;102148.94;431005;1270;143292;-59
2022/03/19 18:03:04;;;;;;;19.60;12.90;;;;;;;3.34;30.83;102156.09;432513;1270;141799;-61
2022/03/19 18:13:10;;;;;;;22.80;14.00;;;;;;;3.08;31.04;102162.98;431978;1270;141794;-58
2022/03/19 18:23:16;;;;;;;16.50;12.90;;;;;;;2.93;31.25;102166.48;431778;1269;152750;-60
2022/03/19 18:33:22;;;;;;;18.60;12.00;;;;;;;2.80;31.41;102167.40;432117;1270;142905;-59
2022/03/19 18:43:29;;;;;;;17.90;11.50;;;;;;;2.76;31.66;102175.66;432189;1270;140990;-60
2022/03/19 18:53:35;;;;;;;16.50;12.60;;;;;;;2.61;31.76;102183.30;431686;1270;143800;-59
2022/03/19 19:03:40;;;;;;;21.20;13.40;;;;;;;2.41;32.03;102192.41;430815;1270;142207;-59
2022/03/19 19:13:46;;;;;;;19.40;11.90;;;;;;;2.25;32.36;102199.82;431356;1270;142163;-58
2022/03/19 19:23:52;;;;;;;16.80;12.30;;;;;;;2.14;32.56;102200.89;430863;1270;143363;-60
2022/03/19 19:33:59;;;;;;;18.90;12.80;;;;;;;2.08;32.83;102200.65;430858;1270;141937;-59
2022/03/19 19:44:05;;;;;;;20.70;12.10;;;;;;;2.02;32.95;102206.96;431597;1269;141442;-58
2022/03/19 19:54:11;;;;;;;21.40;11.70;;;;;;;1.96;33.23;102210.52;432528;1270;141821;-59
2022/03/19 20:04:17;;;;;;;15.30;11.50;;;;;;;1.91;33.39;102206.98;432485;1270;141897;-58
2022/03/19 20:14:23;;;;;;;17.30;11.10;;;;;;;1.81;33.67;102204.23;431593;1270;141516;-59
2022/03/19 20:24:29;;;;;;;15.10;11.40;;;;;;;1.75;33.81;102210.02;430460;1270;142006;-60
2022/03/19 20:34:35;;;;;;;22.10;13.90;;;;;;;1.54;33.92;102213.52;432063;1270;141546;-58
2022/03/19 20:44:42;;;;;;;25.70;16.20;;;;;;;1.30;34.36;102214.69;431336;1270;143783;-59
2022/03/19 20:54:48;;;;;;;25.80;17.90;;;;;;;1.21;34.87;102217.98;441504;1270;142804;-58
2022/03/19 21:04:53;;;;;;;23.90;15.70;;;;;;;1.05;35.15;102216.84;447346;1269;143785;-59
2022/03/19 21:14:59;;;;;;;26.30;14.70;;;;;;;0.86;35.64;102217.73;447637;1270;141204;-59
2022/03/19 21:25:08;;;;;;;25.30;13.50;;;;;;;0.88;36.05;102221.38;446655;1270;142555;-58
2022/03/19 21:35:15;;;;;;;21.50;14.80;;;;;;;0.75;36.30;102217.85;440620;1270;141924;-58
2022/03/19 21:45:21;;;;;;;20.30;13.40;;;;;;;0.69;36.18;102223.97;445453;1269;142932;-58
2022/03/19 21:55:30;;;;;;;17.70;13.00;;;;;;;0.68;36.57;102221.34;447731;1269;142255;-58
2022/03/19 22:05:36;;;;;;;18.60;12.50;;;;;;;0.75;36.60;102232.85;447823;1269;143999;-59
2022/03/19 22:15:41;;;;;;;21.90;12.40;;;;;;;0.77;36.46;102233.94;446998;1269;142106;-58
2022/03/19 22:25:47;;;;;;;18.00;10.80;;;;;;;0.61;36.96;102240.16;447509;1269;143785;-61
2022/03/19 22:35:54;;;;;;;24.20;15.20;;;;;;;0.54;36.88;102245.71;447345;1270;141053;-60
2022/03/19 22:46:00;;;;;;;18.70;12.10;;;;;;;0.60;37.31;102252.58;446375;1270;141700;-60
2022/03/19 22:56:07;;;;;;;24.80;14.80;;;;;;;0.51;37.76;102249.98;447407;1268;141308;-60
2022/03/19 23:06:13;;;;;;;25.70;15.80;;;;;;;0.43;38.10;102254.29;447690;1269;142273;-60
2022/03/19 23:16:19;;;;;;;20.90;14.50;;;;;;;0.38;38.19;102252.63;447122;1269;210851;-61
2022/03/19 23:26:25;;;;;;;22.90;13.80;;;;;;;0.28;38.12;102258.46;436384;1270;141804;-62
2022/03/19 23:36:31;;;;;;;24.80;16.20;;;;;;;0.17;37.98;102251.16;431276;1270;145690;-63
2022/03/19 23:46:37;;;;;;;22.80;14.50;;;;;;;0.15;38.20;102251.63;430815;1270;141656;-61
2022/03/19 23:56:43;;;;;;;25.30;15.40;;;;;;;0.18;38.08;102249.30;444877;1270;142540;-61
